createdAt,value
2023-04-11T00:00:12.938Z,7.40
2023-04-11T00:02:39.795Z,7.30
2023-04-11T00:05:09.813Z,7.40
2023-04-11T00:07:36.761Z,7.30
2023-04-11T00:10:04.388Z,7.30
2023-04-11T00:12:33.955Z,7.20
2023-04-11T00:15:00.717Z,7.20
2023-04-11T00:17:27.665Z,7.20
2023-04-11T00:19:54.455Z,7.00
2023-04-11T00:22:22.538Z,7.00
2023-04-11T00:24:49.287Z,6.90
2023-04-11T00:27:16.095Z,6.80
2023-04-11T00:29:42.828Z,6.80
2023-04-11T00:32:09.761Z,6.80
2023-04-11T00:34:42.304Z,6.80
2023-04-11T00:37:11.860Z,6.70
2023-04-11T00:39:39.928Z,6.80
2023-04-11T00:42:08.034Z,6.70
2023-04-11T00:44:35.366Z,6.70
2023-04-11T00:47:03.631Z,6.70
2023-04-11T00:49:30.819Z,6.60
2023-04-11T00:51:57.826Z,6.70
2023-04-11T00:54:25.305Z,6.60
2023-04-11T00:56:53.473Z,6.70
2023-04-11T00:59:20.252Z,6.70
2023-04-11T01:01:48.816Z,6.50
2023-04-11T01:04:15.902Z,6.60
2023-04-11T01:06:45.601Z,6.40
2023-04-11T01:09:12.895Z,6.60
2023-04-11T01:11:39.747Z,6.60
2023-04-11T01:14:07.877Z,6.30
2023-04-11T01:16:34.818Z,6.30
2023-04-11T01:19:06.890Z,6.30
2023-04-11T01:21:34.146Z,6.40
2023-04-11T01:24:08.264Z,6.30
2023-04-11T01:26:35.022Z,6.50
2023-04-11T01:29:02.420Z,6.30
2023-04-11T01:31:38.386Z,6.40
2023-04-11T01:34:05.465Z,6.20
2023-04-11T01:36:32.521Z,6.20
2023-04-11T01:38:59.606Z,6.20
2023-04-11T01:41:29.389Z,6.20
2023-04-11T01:43:56.502Z,6.10
2023-04-11T01:46:23.453Z,6.00
2023-04-11T01:48:50.559Z,6.20
2023-04-11T01:51:17.497Z,6.20
2023-04-11T01:53:44.320Z,6.20
2023-04-11T01:56:12.462Z,6.30
2023-04-11T01:58:46.158Z,6.20
2023-04-11T02:01:12.982Z,6.30
2023-04-11T02:03:42.135Z,6.30
2023-04-11T02:06:11.395Z,6.40
2023-04-11T02:08:38.275Z,6.40
2023-04-11T02:11:07.227Z,6.50
2023-04-11T02:13:35.362Z,6.30
2023-04-11T02:16:09.640Z,6.30
2023-04-11T02:18:41.033Z,6.20
2023-04-11T02:21:07.866Z,6.20
2023-04-11T02:23:34.743Z,6.20
2023-04-11T02:26:02.559Z,6.10
2023-04-11T02:28:31.061Z,6.20
2023-04-11T02:30:57.864Z,6.10
2023-04-11T02:33:26.028Z,6.10
2023-04-11T02:35:52.975Z,6.00
2023-04-11T02:38:19.848Z,5.90
2023-04-11T02:40:46.620Z,5.80
2023-04-11T02:43:16.811Z,5.90
2023-04-11T02:45:43.689Z,6.00
2023-04-11T02:48:10.502Z,6.00
2023-04-11T02:50:38.585Z,6.10
2023-04-11T02:53:07.727Z,5.80
2023-04-11T02:55:37.533Z,5.90
2023-04-11T02:58:04.320Z,6.00
2023-04-11T03:00:31.083Z,6.00
2023-04-11T03:02:57.985Z,6.10
2023-04-11T03:05:28.801Z,6.10
2023-04-11T03:07:56.947Z,6.00
2023-04-11T03:10:23.664Z,6.10
2023-04-11T03:12:50.722Z,6.30
2023-04-11T03:15:17.475Z,6.20
2023-04-11T03:17:44.321Z,6.30
2023-04-11T03:20:11.188Z,6.20
2023-04-11T03:22:39.441Z,6.20
2023-04-11T03:25:08.733Z,6.10
2023-04-11T03:27:37.377Z,6.00
2023-04-11T03:30:04.791Z,5.90
2023-04-11T03:32:31.604Z,5.90
2023-04-11T03:35:00.915Z,5.90
2023-04-11T03:37:27.728Z,6.10
2023-04-11T03:39:54.494Z,6.20
2023-04-11T03:42:22.673Z,6.20
2023-04-11T03:44:49.449Z,6.10
2023-04-11T03:47:16.287Z,6.20
2023-04-11T03:49:43.063Z,6.10
2023-04-11T03:52:10.063Z,6.20
2023-04-11T03:54:36.855Z,6.10
2023-04-11T03:57:03.708Z,6.10
2023-04-11T03:59:31.865Z,6.20
2023-04-11T04:01:58.694Z,6.20
2023-04-11T04:04:26.766Z,6.10
2023-04-11T04:06:53.702Z,6.20
2023-04-11T04:09:20.437Z,6.10
2023-04-11T04:11:47.278Z,6.10
2023-04-11T04:14:14.037Z,6.10
2023-04-11T04:16:42.188Z,6.00
2023-04-11T04:19:08.952Z,6.00
2023-04-11T04:21:36.199Z,5.90
2023-04-11T04:24:03.091Z,5.90
2023-04-11T04:26:30.053Z,5.90
2023-04-11T04:28:57.291Z,5.90
2023-04-11T04:31:24.092Z,5.90
2023-04-11T04:33:52.242Z,5.90
2023-04-11T04:36:21.690Z,5.90
2023-04-11T04:38:48.389Z,5.90
2023-04-11T04:41:15.265Z,5.80
2023-04-11T04:43:42.173Z,5.80
2023-04-11T04:46:09.300Z,5.80
2023-04-11T04:48:36.128Z,5.80
2023-04-11T04:51:05.402Z,5.90
2023-04-11T04:53:32.268Z,5.80
2023-04-11T04:55:59.113Z,5.80
2023-04-11T04:58:26.447Z,5.70
2023-04-11T05:00:54.188Z,5.60
2023-04-11T05:03:24.540Z,5.50
2023-04-11T05:05:51.488Z,5.50
2023-04-11T05:08:22.114Z,5.40
2023-04-11T05:10:52.069Z,5.20
2023-04-11T05:13:18.840Z,5.20
2023-04-11T05:15:47.731Z,5.30
2023-04-11T05:18:14.512Z,5.20
2023-04-11T05:20:44.190Z,5.10
2023-04-11T05:23:10.935Z,5.20
2023-04-11T05:25:39.061Z,5.00
2023-04-11T05:28:05.815Z,5.10
2023-04-11T05:30:32.648Z,5.20
2023-04-11T05:32:59.502Z,5.20
2023-04-11T05:35:26.294Z,5.20
2023-04-11T05:37:53.042Z,5.10
2023-04-11T05:40:20.106Z,5.10
2023-04-11T05:42:48.210Z,5.20
2023-04-11T05:45:15.171Z,5.30
2023-04-11T05:47:42.035Z,5.40
2023-04-11T05:50:10.144Z,5.40
2023-04-11T05:52:39.568Z,5.50
2023-04-11T05:55:07.204Z,5.70
2023-04-11T05:57:33.903Z,5.90
2023-04-11T06:00:02.186Z,5.90
2023-04-11T06:02:29.130Z,5.70
2023-04-11T06:05:05.403Z,5.80
2023-04-11T06:07:34.395Z,5.80
2023-04-11T06:10:03.628Z,5.90
2023-04-11T06:12:30.390Z,5.90
2023-04-11T06:14:58.114Z,6.00
2023-04-11T06:17:29.316Z,6.00
2023-04-11T06:19:56.145Z,6.20
2023-04-11T06:22:22.934Z,6.50
2023-04-11T06:24:49.674Z,7.50
2023-04-11T06:27:16.577Z,8.10
2023-04-11T06:29:43.500Z,8.20
2023-04-11T06:32:11.997Z,8.30
2023-04-11T06:34:40.341Z,8.30
2023-04-11T06:37:07.329Z,8.90
2023-04-11T06:39:34.562Z,10.20
2023-04-11T06:42:01.925Z,7.80
2023-04-11T06:44:29.007Z,7.60
2023-04-11T06:46:55.835Z,7.00
2023-04-11T06:49:23.222Z,7.50
2023-04-11T06:51:51.355Z,7.50
2023-04-11T06:54:18.702Z,8.30
2023-04-11T06:56:45.511Z,9.40
2023-04-11T06:59:12.282Z,8.90
2023-04-11T07:01:39.663Z,7.40
2023-04-11T07:04:07.313Z,7.40
2023-04-11T07:06:34.558Z,6.10
2023-04-11T07:09:02.951Z,6.20
2023-04-11T07:11:30.141Z,6.20
2023-04-11T07:14:00.540Z,7.40
2023-04-11T07:16:27.546Z,8.90
2023-04-11T07:18:57.176Z,9.60
2023-04-11T07:21:23.902Z,10.30
2023-04-11T07:23:50.641Z,10.40
2023-04-11T07:26:18.797Z,10.40
2023-04-11T07:28:45.772Z,9.20
2023-04-11T07:31:13.375Z,9.60
2023-04-11T07:33:43.439Z,9.20
2023-04-11T07:36:11.490Z,8.90
2023-04-11T07:38:38.253Z,9.30
2023-04-11T07:41:08.949Z,9.00
2023-04-11T07:43:38.190Z,9.40
2023-04-11T07:46:05.135Z,8.70
2023-04-11T07:48:32.024Z,8.40
2023-04-11T07:50:58.805Z,8.10
2023-04-11T07:53:25.566Z,7.80
2023-04-11T07:55:52.335Z,7.40
2023-04-11T07:58:19.110Z,7.40
2023-04-11T08:00:47.239Z,8.30
2023-04-11T08:03:15.614Z,8.40
2023-04-11T08:05:42.574Z,9.00
2023-04-11T08:08:09.307Z,9.60
2023-04-11T08:10:36.118Z,9.30
2023-04-11T08:13:02.869Z,9.10
2023-04-11T08:15:29.626Z,8.80
2023-04-11T08:17:57.727Z,8.90
2023-04-11T08:20:26.114Z,9.00
2023-04-11T08:22:53.014Z,9.10
2023-04-11T08:25:19.786Z,10.00
2023-04-11T08:27:46.834Z,10.60
2023-04-11T08:30:14.816Z,9.60
2023-04-11T08:32:41.653Z,8.40
2023-04-11T08:35:10.432Z,8.90
2023-04-11T08:37:37.151Z,8.60
2023-04-11T08:40:04.406Z,8.80
2023-04-11T08:42:33.399Z,8.90
2023-04-11T08:45:00.983Z,9.00
2023-04-11T08:47:28.581Z,8.70
2023-04-11T08:49:57.892Z,9.00
2023-04-11T08:52:26.332Z,8.70
2023-04-11T08:54:54.034Z,9.60
2023-04-11T08:57:26.311Z,9.80
2023-04-11T08:59:54.458Z,9.40
2023-04-11T09:02:24.488Z,9.30
2023-04-11T09:04:51.645Z,9.50
2023-04-11T09:07:18.573Z,9.80
2023-04-11T09:09:46.685Z,9.70
2023-04-11T09:12:21.412Z,10.20
2023-04-11T09:14:48.191Z,8.90
2023-04-11T09:17:14.929Z,10.00
2023-04-11T09:19:41.806Z,10.40
2023-04-11T09:22:08.795Z,9.60
2023-04-11T09:24:36.787Z,9.70
2023-04-11T09:27:10.623Z,10.00
2023-04-11T09:29:41.918Z,9.60
2023-04-11T09:32:26.400Z,10.40
2023-04-11T09:35:07.829Z,10.50
2023-04-11T09:37:43.077Z,10.40
2023-04-11T09:40:10.459Z,11.00
2023-04-11T09:42:38.855Z,10.60
2023-04-11T09:45:17.586Z,10.60
2023-04-11T09:47:48.342Z,10.70
2023-04-11T09:50:16.163Z,10.40
2023-04-11T09:52:44.602Z,10.40
2023-04-11T09:55:15.570Z,10.90
2023-04-11T09:57:46.594Z,10.80
2023-04-11T10:00:15.185Z,11.10
2023-04-11T10:02:42.795Z,11.30
2023-04-11T10:05:10.302Z,11.90
2023-04-11T10:07:48.630Z,11.50
2023-04-11T10:10:19.910Z,11.00
2023-04-11T10:12:51.774Z,10.70
2023-04-11T10:15:19.358Z,11.00
2023-04-11T10:18:08.369Z,11.50
2023-04-11T10:20:43.480Z,12.20
2023-04-11T10:23:10.920Z,11.20
2023-04-11T10:25:51.935Z,10.50
2023-04-11T10:28:36.898Z,9.90
2023-04-11T10:31:05.511Z,10.40
2023-04-11T10:33:33.866Z,10.70
2023-04-11T10:36:02.444Z,10.90
2023-04-11T10:38:45.747Z,11.10
2023-04-11T10:41:31.831Z,11.20
2023-04-11T10:44:17.975Z,11.30
2023-04-11T10:46:46.817Z,12.20
2023-04-11T10:49:30.603Z,11.20
2023-04-11T10:52:16.400Z,11.20
2023-04-11T10:54:44.053Z,10.80
2023-04-11T10:57:10.849Z,11.10
2023-04-11T10:59:57.939Z,11.40
2023-04-11T11:02:35.897Z,11.10
2023-04-11T11:05:20.181Z,10.30
2023-04-11T11:07:48.343Z,11.10
2023-04-11T11:10:15.233Z,10.50
2023-04-11T11:12:54.646Z,11.60
2023-04-11T11:15:23.053Z,10.90
2023-04-11T11:17:49.928Z,10.90
2023-04-11T11:20:17.479Z,11.10
2023-04-11T11:22:58.505Z,10.80
2023-04-11T11:25:25.446Z,10.20
2023-04-11T11:27:58.855Z,10.80
2023-04-11T11:30:27.478Z,11.60
2023-04-11T11:32:54.327Z,11.60
2023-04-11T11:35:22.083Z,11.40
2023-04-11T11:37:50.301Z,11.00
2023-04-11T11:40:17.408Z,11.70
2023-04-11T11:42:44.308Z,12.60
2023-04-11T11:45:14.813Z,12.80
2023-04-11T11:47:43.794Z,12.30
2023-04-11T11:50:10.713Z,11.90
2023-04-11T11:52:39.042Z,12.30
2023-04-11T11:55:10.870Z,13.00
2023-04-11T11:57:43.446Z,11.90
2023-04-11T12:00:14.493Z,11.60
2023-04-11T12:02:49.224Z,11.30
2023-04-11T12:05:18.012Z,11.80
2023-04-11T12:07:44.760Z,12.40
2023-04-11T12:10:15.272Z,12.40
2023-04-11T12:12:43.427Z,13.00
2023-04-11T12:15:16.202Z,11.90
2023-04-11T12:17:50.163Z,12.40
2023-04-11T12:20:24.657Z,13.50
2023-04-11T12:22:53.018Z,13.40
2023-04-11T12:25:22.656Z,12.70
2023-04-11T12:27:49.718Z,11.90
2023-04-11T12:30:16.682Z,11.80
2023-04-11T12:32:48.554Z,12.60
2023-04-11T12:35:18.654Z,12.40
2023-04-11T12:37:45.698Z,12.90
2023-04-11T12:40:14.391Z,11.20
2023-04-11T12:42:55.102Z,11.50
2023-04-11T12:45:23.664Z,11.80
2023-04-11T12:47:50.542Z,11.60
2023-04-11T12:50:20.203Z,11.00
2023-04-11T12:52:53.157Z,11.80
2023-04-11T12:55:23.788Z,12.00
2023-04-11T12:57:50.610Z,11.70
2023-04-11T13:00:18.146Z,12.80
2023-04-11T13:02:45.473Z,12.70
2023-04-11T13:05:13.404Z,11.40
2023-04-11T13:07:41.828Z,11.50
2023-04-11T13:10:10.103Z,10.90
2023-04-11T13:12:37.230Z,11.70
2023-04-11T13:15:04.694Z,11.80
2023-04-11T13:17:31.672Z,12.10
2023-04-11T13:19:58.364Z,12.90
2023-04-11T13:22:25.725Z,12.10
2023-04-11T13:24:53.781Z,12.10
2023-04-11T13:27:20.496Z,12.40
2023-04-11T13:29:47.247Z,13.20
2023-04-11T13:32:17.773Z,13.10
2023-04-11T13:34:44.550Z,11.90
2023-04-11T13:37:13.627Z,11.80
2023-04-11T13:39:40.442Z,12.10
2023-04-11T13:42:09.306Z,12.70
2023-04-11T13:44:35.996Z,12.50
2023-04-11T13:47:03.464Z,12.40
2023-04-11T13:49:30.267Z,12.20
2023-04-11T13:51:57.008Z,12.10
2023-04-11T13:54:23.746Z,12.40
2023-04-11T13:56:50.437Z,12.60
2023-04-11T13:59:18.715Z,12.30
2023-04-11T14:01:45.576Z,12.50
2023-04-11T14:04:12.555Z,12.40
2023-04-11T14:06:39.504Z,12.90
2023-04-11T14:09:06.236Z,13.30
2023-04-11T14:11:33.031Z,13.10
2023-04-11T14:13:59.798Z,13.40
2023-04-11T14:16:27.848Z,13.30
2023-04-11T14:18:54.592Z,12.10
2023-04-11T14:21:22.775Z,12.30
2023-04-11T14:23:49.521Z,12.60
2023-04-11T14:26:16.468Z,12.90
2023-04-11T14:28:43.206Z,12.80
2023-04-11T14:31:10.035Z,12.20
2023-04-11T14:33:38.178Z,12.40
2023-04-11T14:36:05.296Z,12.60
2023-04-11T14:38:32.129Z,13.10
2023-04-11T14:40:58.857Z,12.70
2023-04-11T14:43:25.597Z,12.70
2023-04-11T14:45:55.486Z,11.60
2023-04-11T14:48:22.261Z,12.10
2023-04-11T14:50:50.350Z,11.60
2023-04-11T14:53:17.189Z,11.50
2023-04-11T14:55:45.086Z,11.20
2023-04-11T14:58:15.286Z,11.40
2023-04-11T15:00:42.021Z,12.20
2023-04-11T15:03:09.576Z,12.40
2023-04-11T15:05:36.400Z,12.10
2023-04-11T15:08:04.622Z,12.10
2023-04-11T15:10:31.359Z,12.10
2023-04-11T15:12:58.116Z,12.30
2023-04-11T15:15:24.848Z,12.20
2023-04-11T15:18:18.226Z,12.00
2023-04-11T15:20:44.960Z,11.90
2023-04-11T15:23:13.073Z,12.00
2023-04-11T15:25:39.878Z,12.10
2023-04-11T15:28:06.589Z,12.00
2023-04-11T15:30:34.277Z,12.60
2023-04-11T15:33:01.368Z,12.50
2023-04-11T15:35:28.541Z,12.10
2023-04-11T15:37:55.244Z,12.50
2023-04-11T15:40:23.294Z,11.80
2023-04-11T15:42:49.983Z,12.40
2023-04-11T15:45:16.832Z,12.20
2023-04-11T15:47:43.638Z,12.50
2023-04-11T15:50:11.229Z,12.30
2023-04-11T15:52:37.989Z,12.30
2023-04-11T15:55:05.685Z,11.90
2023-04-11T15:57:34.066Z,12.30
2023-04-11T16:00:00.876Z,12.40
2023-04-11T16:02:28.017Z,12.30
2023-04-11T16:04:54.965Z,12.10
2023-04-11T16:07:21.812Z,11.80
2023-04-11T16:09:49.178Z,12.10
2023-04-11T16:12:17.008Z,11.90
2023-04-11T16:14:45.106Z,11.20
2023-04-11T16:17:12.188Z,11.30
2023-04-11T16:19:38.928Z,11.30
2023-04-11T16:22:05.666Z,11.20
2023-04-11T16:24:32.406Z,11.00
2023-04-11T16:26:59.149Z,11.10
2023-04-11T16:29:28.578Z,11.30
2023-04-11T16:31:56.723Z,11.40
2023-04-11T16:34:23.493Z,11.30
2023-04-11T16:36:51.268Z,11.40
2023-04-11T16:39:18.282Z,11.60
2023-04-11T16:41:45.038Z,11.50
2023-04-11T16:44:11.822Z,11.30
2023-04-11T16:46:38.906Z,11.40
2023-04-11T16:49:07.472Z,11.40
2023-04-11T16:51:34.308Z,11.50
2023-04-11T16:54:01.034Z,11.40
2023-04-11T16:56:29.014Z,11.20
2023-04-11T16:58:58.870Z,11.00
2023-04-11T17:01:25.685Z,11.30
2023-04-11T17:03:52.624Z,11.00
2023-04-11T17:06:20.902Z,10.70
2023-04-11T17:08:47.614Z,10.70
2023-04-11T17:11:14.333Z,10.80
2023-04-11T17:13:43.817Z,10.60
2023-04-11T17:16:10.702Z,10.40
2023-04-11T17:18:37.790Z,10.40
2023-04-11T17:21:05.449Z,10.20
2023-04-11T17:23:42.364Z,10.20
2023-04-11T17:26:10.481Z,10.10
2023-04-11T17:28:37.752Z,10.00
2023-04-11T17:31:10.953Z,10.00
2023-04-11T17:33:37.680Z,9.80
2023-04-11T17:36:07.784Z,9.90
2023-04-11T17:38:37.355Z,10.00
2023-04-11T17:41:13.716Z,9.90
2023-04-11T17:43:42.902Z,9.90
2023-04-11T17:46:09.797Z,9.80
2023-04-11T17:48:36.820Z,9.80
2023-04-11T17:51:04.216Z,9.60
2023-04-11T17:53:30.961Z,9.40
2023-04-11T17:56:04.412Z,9.30
2023-04-11T17:58:37.378Z,9.10
2023-04-11T18:01:09.007Z,9.00
2023-04-11T18:03:36.000Z,9.00
2023-04-11T18:06:02.953Z,9.00
2023-04-11T18:08:46.805Z,8.90
2023-04-11T18:11:17.742Z,8.90
2023-04-11T18:13:44.649Z,8.80
2023-04-11T18:16:12.390Z,8.70
2023-04-11T18:18:46.650Z,8.70
2023-04-11T18:21:13.594Z,8.70
2023-04-11T18:23:40.335Z,8.80
2023-04-11T18:26:07.069Z,8.70
2023-04-11T18:28:37.405Z,8.80
2023-04-11T18:31:04.638Z,8.90
2023-04-11T18:33:31.485Z,8.80
2023-04-11T18:36:01.066Z,8.80
2023-04-11T18:38:27.877Z,8.80
2023-04-11T18:40:56.485Z,8.80
2023-04-11T18:43:23.939Z,8.80
2023-04-11T18:45:52.418Z,8.80
2023-04-11T18:48:19.174Z,8.80
2023-04-11T18:50:46.198Z,8.80
2023-04-11T18:53:13.789Z,8.80
2023-04-11T18:55:41.327Z,8.80
2023-04-11T18:58:09.998Z,8.70
2023-04-11T19:00:38.741Z,8.70
2023-04-11T19:03:07.653Z,8.70
2023-04-11T19:05:34.906Z,8.70
2023-04-11T19:08:01.800Z,8.70
2023-04-11T19:10:31.189Z,8.70
2023-04-11T19:12:57.986Z,8.70
2023-04-11T19:15:26.654Z,8.60
2023-04-11T19:17:53.842Z,8.60
2023-04-11T19:20:23.887Z,8.60
2023-04-11T19:22:51.432Z,8.60
2023-04-11T19:25:18.433Z,8.50
2023-04-11T19:27:45.244Z,8.50
2023-04-11T19:30:14.933Z,8.50
2023-04-11T19:32:43.872Z,8.50
2023-04-11T19:35:13.336Z,8.50
2023-04-11T19:37:46.635Z,8.50
2023-04-11T19:40:13.621Z,8.50
2023-04-11T19:42:40.627Z,8.40
2023-04-11T19:45:09.368Z,8.30
2023-04-11T19:47:36.143Z,8.30
2023-04-11T19:50:05.492Z,8.30
2023-04-11T19:52:32.303Z,8.30
2023-04-11T19:55:00.506Z,8.30
2023-04-11T19:57:27.526Z,8.30
2023-04-11T19:59:54.619Z,8.30
2023-04-11T20:02:21.497Z,8.40
2023-04-11T20:04:48.385Z,8.40
2023-04-11T20:07:15.441Z,8.50
2023-04-11T20:09:42.226Z,8.50
2023-04-11T20:12:10.421Z,8.40
2023-04-11T20:14:37.217Z,8.40
2023-04-11T20:17:07.639Z,8.40
2023-04-11T20:19:34.444Z,8.50
2023-04-11T20:22:01.271Z,8.40
2023-04-11T20:24:28.072Z,8.40
2023-04-11T20:26:55.250Z,8.40
2023-04-11T20:29:23.346Z,8.40
2023-04-11T20:31:50.186Z,8.40
2023-04-11T20:34:16.906Z,8.40
2023-04-11T20:36:45.860Z,8.30
2023-04-11T20:39:12.709Z,8.30
2023-04-11T20:41:40.628Z,8.30
2023-04-11T20:44:07.462Z,8.30
2023-04-11T20:46:35.598Z,8.30
2023-04-11T20:49:02.381Z,8.30
2023-04-11T20:51:29.214Z,8.20
2023-04-11T20:53:56.225Z,8.20
2023-04-11T20:56:23.258Z,8.10
2023-04-11T20:58:50.009Z,8.10
2023-04-11T21:01:16.752Z,8.10
2023-04-11T21:03:44.959Z,8.10
2023-04-11T21:06:11.873Z,8.00
2023-04-11T21:08:38.637Z,8.10
2023-04-11T21:11:05.729Z,8.10
2023-04-11T21:13:32.779Z,8.10
2023-04-11T21:15:59.517Z,8.10
2023-04-11T21:18:26.283Z,8.00
2023-04-11T21:20:54.388Z,7.90
2023-04-11T21:23:21.214Z,7.90
2023-04-11T21:25:47.958Z,7.90
2023-04-11T21:28:15.139Z,7.90
2023-04-11T21:30:41.908Z,7.90
2023-04-11T21:33:08.694Z,7.80
2023-04-11T21:35:35.688Z,7.90
2023-04-11T21:38:03.802Z,7.90
2023-04-11T21:40:30.668Z,7.80
2023-04-11T21:42:57.476Z,7.80
2023-04-11T21:45:24.226Z,7.80
2023-04-11T21:47:53.865Z,7.90
2023-04-11T21:50:20.635Z,7.90
2023-04-11T21:52:47.340Z,7.90
2023-04-11T21:55:16.020Z,7.90
2023-04-11T21:57:45.826Z,7.90
2023-04-11T22:00:13.027Z,7.90
2023-04-11T22:02:40.102Z,7.90
2023-04-11T22:05:07.930Z,7.80
2023-04-11T22:07:35.136Z,7.80
2023-04-11T22:10:01.906Z,7.80
2023-04-11T22:12:29.964Z,7.80
2023-04-11T22:14:56.691Z,7.80
2023-04-11T22:17:23.459Z,7.80
2023-04-11T22:19:50.245Z,7.70
2023-04-11T22:22:17.331Z,7.70
2023-04-11T22:24:44.054Z,7.60
2023-04-11T22:27:10.801Z,7.60
2023-04-11T22:29:39.162Z,7.60
2023-04-11T22:32:06.363Z,7.60
2023-04-11T22:34:33.376Z,7.60
2023-04-11T22:37:00.223Z,7.50
2023-04-11T22:39:26.950Z,7.50
2023-04-11T22:41:53.729Z,7.50
2023-04-11T22:44:20.634Z,7.30
2023-04-11T22:46:59.744Z,7.30
2023-04-11T22:49:27.266Z,7.30
2023-04-11T22:51:54.027Z,7.30
2023-04-11T22:54:20.753Z,7.20
2023-04-11T22:56:47.502Z,7.10
2023-04-11T22:59:14.337Z,7.20
2023-04-11T23:01:41.193Z,7.10
2023-04-11T23:04:09.443Z,7.10
2023-04-11T23:06:36.152Z,7.10
2023-04-11T23:09:03.289Z,7.00
2023-04-11T23:11:30.011Z,7.10
2023-04-11T23:13:57.009Z,7.00
2023-04-11T23:16:24.007Z,7.00
2023-04-11T23:18:52.758Z,6.90
2023-04-11T23:21:20.838Z,6.90
2023-04-11T23:23:47.566Z,6.90
2023-04-11T23:26:17.535Z,6.90
2023-04-11T23:28:44.408Z,6.90
2023-04-11T23:31:11.139Z,6.90
2023-04-11T23:33:38.375Z,6.90
2023-04-11T23:36:05.696Z,6.80
2023-04-11T23:38:33.961Z,6.80
2023-04-11T23:41:00.719Z,6.70
2023-04-11T23:43:27.424Z,6.70
2023-04-11T23:45:54.145Z,6.70
2023-04-11T23:48:21.708Z,6.60
2023-04-11T23:50:49.712Z,6.60
2023-04-11T23:53:19.082Z,6.50
2023-04-11T23:55:49.714Z,6.50
2023-04-11T23:58:16.680Z,6.40
